This is the latest recevied weather packets stored in our database for station/object KS5S. If no packets are shown the sender has not sent any weather packets the latest 1 day(s).
| Time | Temp. | Humidity | Pressure | Rain* | Wind** | Luminosity | Snow |
|---|---|---|---|---|---|---|---|
| 1778083822 | 13.89° C | 86% | 1011.8 hPa | 0 mm | - | 259 W/m² | - |
| 1778082915 | 13.89° C | 87% | 1011.5 hPa | 0 mm | - | 509 W/m² | - |
| 1778080898 | 12.22° C | 91% | 1012.1 hPa | 0.51 mm | - | 158 W/m² | - |
| 1778080293 | 12.22° C | 91% | 1012.4 hPa | 0 mm | - | 108 W/m² | - |
| 1778079990 | 12.22° C | 91% | 1012.8 hPa | 0 mm | - | 73 W/m² | - |
| 1778079687 | 12.22° C | 90% | 1012.4 hPa | 0 mm | - | 63 W/m² | - |
| 1778078778 | 12.22° C | 87% | 1012.8 hPa | 0 mm | - | 39 W/m² | - |
| 1778076056 | 12.78° C | 84% | 1011.9 hPa | 0 mm | - | 51 W/m² | - |
| 1778073933 | 13.33° C | 80% | 1011.5 hPa | 0 mm | - | 59 W/m² | - |
| 1778073327 | 13.89° C | 79% | 1010.9 hPa | 0 mm | - | 103 W/m² | - |
| 1778072418 | 13.89° C | 80% | 1010.5 hPa | 0 mm | - | 63 W/m² | - |
| 1778072116 | 13.89° C | 81% | 1010.5 hPa | 0 mm | - | 39 W/m² | - |
| 1778071209 | 13.89° C | 80% | 1010.6 hPa | 0 mm | - | 40 W/m² | - |
| 1778070301 | 13.89° C | 81% | 1010.2 hPa | 0 mm | - | 29 W/m² | - |
| 1778069696 | 13.89° C | 81% | 1010.1 hPa | 0 mm | - | 21 W/m² | - |
| 1778067579 | 14.44° C | 82% | 1009.8 hPa | 0 mm | - | 1 W/m² | - |
| 1778065460 | 15° C | 82% | 1009.2 hPa | 0 mm | - | 0 W/m² | - |
| 1778064853 | 15° C | 82% | 1009.3 hPa | 0 mm | - | 0 W/m² | - |
| 1778064248 | 15.56° C | 81% | 1008.8 hPa | 0 mm | - | 0 W/m² | - |
| 1778063946 | 15.56° C | 80% | 1009.1 hPa | 0 mm | - | 0 W/m² | - |
| 1778063643 | 15.56° C | 80% | 1008.8 hPa | 0 mm | - | 0 W/m² | - |
| 1778063340 | 15.56° C | 81% | 1008.7 hPa | 0 mm | - | 0 W/m² | - |
| 1778062735 | 15.56° C | 81% | 1008.5 hPa | 0 mm | - | 0 W/m² | - |
| 1778062431 | 15.56° C | 81% | 1008.6 hPa | 0 mm | - | 0 W/m² | - |
| 1778062129 | 16.11° C | 80% | 1008.5 hPa | 0 mm | - | 0 W/m² | - |
* Rain latest hour (hover to see other rain measurements)
** Current wind speed in m/s (hover to see current wind gust speed)